This is the latest recevied weather packets stored in our database for station/object KI7JYE. If no packets are shown the sender has not sent any weather packets the latest 10 day(s).
| Time | Temp. | Humidity | Pressure | Rain* | Wind** | Luminosity | Snow |
|---|---|---|---|---|---|---|---|
| 1777219920 | 12.22° C | 62% | 1008.8 hPa | 0 mm | - | 413 W/m² | - |
| 1777219617 | 12.78° C | 60% | 1008.8 hPa | 0 mm | - | 395 W/m² | - |
| 1777219314 | 12.22° C | 63% | 1009.2 hPa | 0 mm | - | 377 W/m² | - |
| 1777219010 | 12.22° C | 62% | 1008.7 hPa | 0 mm | - | 354 W/m² | - |
| 1777218706 | 12.22° C | 64% | 1008.7 hPa | 0 mm | - | 339 W/m² | - |
| 1777218402 | 12.22° C | 65% | 1008.6 hPa | 0 mm | - | 314 W/m² | - |
| 1777218098 | 12.22° C | 61% | 1008.7 hPa | 0 mm | - | 301 W/m² | - |
| 1777217793 | 11.67° C | 61% | 1008.4 hPa | 0 mm | - | 293 W/m² | - |
| 1777217490 | 11.67° C | 62% | 1008.4 hPa | 0 mm | - | 278 W/m² | - |
| 1777217186 | 11.11° C | 63% | 1008.6 hPa | 0 mm | - | 262 W/m² | - |
| 1777216883 | 10.56° C | 64% | 1008.6 hPa | 0 mm | - | 248 W/m² | - |
| 1777216579 | 10.56° C | 64% | 1008.4 hPa | 0 mm | - | 245 W/m² | - |
| 1777216275 | 10.56° C | 63% | 1008.4 hPa | 0 mm | - | 236 W/m² | - |
| 1777215974 | 10.56° C | 63% | 1008.3 hPa | 0 mm | - | 219 W/m² | - |
| 1777215670 | 9.44° C | 67% | 1008.3 hPa | 0 mm | - | 209 W/m² | - |
| 1777215365 | 8.89° C | 70% | 1008.3 hPa | 0 mm | - | 204 W/m² | - |
| 1777215062 | 8.89° C | 70% | 1008.3 hPa | 0 mm | - | 194 W/m² | - |
| 1777214761 | 8.33° C | 71% | 1008 hPa | 0 mm | - | 186 W/m² | - |
| 1777214455 | 8.33° C | 74% | 1008.3 hPa | 0 mm | - | 171 W/m² | - |
| 1777214150 | 7.22° C | 75% | 1008 hPa | 0 mm | - | 155 W/m² | - |
| 1777213845 | 6.11° C | 80% | 1008 hPa | 0 mm | - | 133 W/m² | - |
| 1777213540 | 5.56° C | 83% | 1008.1 hPa | 0 mm | - | 61 W/m² | - |
| 1777213237 | 5° C | 85% | 1008.2 hPa | 0 mm | - | 51 W/m² | - |
| 1777212933 | 4.44° C | 87% | 1008 hPa | 0 mm | - | 55 W/m² | - |
| 1777212632 | 4.44° C | 87% | 1008 hPa | 0 mm | - | 46 W/m² | - |
* Rain latest hour (hover to see other rain measurements)
** Current wind speed in m/s (hover to see current wind gust speed)